createdAt,value
2022-10-14T00:01:48.689Z,11.12
2022-10-14T00:06:48.629Z,11.06
2022-10-14T00:11:48.641Z,10.93
2022-10-14T00:16:48.610Z,10.87
2022-10-14T00:21:48.605Z,10.87
2022-10-14T00:26:48.602Z,10.81
2022-10-14T00:31:48.599Z,10.87
2022-10-14T00:41:48.639Z,10.68
2022-10-14T00:46:48.592Z,10.87
2022-10-14T00:51:48.583Z,10.68
2022-10-14T00:56:48.564Z,10.81
2022-10-14T01:01:48.555Z,10.68
2022-10-14T01:06:48.561Z,10.68
2022-10-14T01:11:56.709Z,10.87
2022-10-14T01:16:48.548Z,10.75
2022-10-14T01:21:48.529Z,10.81
2022-10-14T01:26:48.539Z,10.87
2022-10-14T01:36:48.527Z,11.06
2022-10-14T01:46:48.519Z,10.87
2022-10-14T03:01:48.479Z,10.87
2022-10-14T03:26:48.423Z,10.81
2022-10-14T03:31:48.448Z,10.93
2022-10-14T03:36:48.400Z,10.87
2022-10-14T03:41:48.413Z,10.87
2022-10-14T03:46:48.414Z,10.81
2022-10-14T03:51:48.407Z,10.87
2022-10-14T03:56:48.394Z,10.93
2022-10-14T04:01:48.433Z,11
2022-10-14T04:06:48.369Z,10.87
2022-10-14T04:11:48.360Z,10.87
2022-10-14T04:16:49.935Z,10.81
2022-10-14T04:21:48.357Z,10.87
2022-10-14T04:26:48.345Z,10.93
2022-10-14T04:31:48.353Z,10.93
2022-10-14T04:36:48.338Z,11
2022-10-14T04:41:48.334Z,10.81
2022-10-14T04:46:48.332Z,11.06
2022-10-14T04:51:48.351Z,11.06
2022-10-14T04:56:48.317Z,11.06
2022-10-14T05:01:48.335Z,11
2022-10-14T05:06:48.322Z,10.75
2022-10-14T05:11:48.335Z,11.06
2022-10-14T05:16:48.301Z,11.12
2022-10-14T05:21:48.293Z,10.93
2022-10-14T05:26:48.291Z,11.12
2022-10-14T05:31:48.279Z,11
2022-10-14T05:36:48.272Z,11.06
2022-10-14T05:41:48.270Z,10.81
2022-10-14T05:46:48.271Z,10.81
2022-10-14T05:51:48.272Z,10.68
2022-10-14T05:56:48.273Z,10.93
2022-10-14T06:01:48.271Z,10.93
2022-10-14T06:06:48.264Z,10.93
2022-10-14T06:11:48.281Z,10.93
2022-10-14T06:16:48.239Z,11.06
2022-10-14T06:21:48.242Z,11.18
2022-10-14T06:26:48.246Z,10.93
2022-10-14T06:31:48.221Z,10.93
2022-10-14T06:36:48.231Z,10.93
2022-10-14T06:41:48.215Z,11.12
2022-10-14T06:46:48.213Z,11.25
2022-10-14T06:51:48.209Z,11.37
2022-10-14T06:56:48.290Z,11.43
2022-10-14T07:01:48.276Z,11.62
2022-10-14T07:06:48.194Z,12.06
2022-10-14T07:11:48.175Z,12.5
2022-10-14T07:16:48.178Z,12.5
2022-10-14T07:21:48.172Z,12.87
2022-10-14T07:26:48.179Z,12.87
2022-10-14T07:31:48.168Z,13.25
2022-10-14T07:36:48.152Z,13.31
2022-10-14T07:41:48.155Z,13.31
2022-10-14T07:46:48.140Z,13.25
2022-10-14T07:51:48.156Z,13.81
2022-10-14T07:56:48.146Z,13.68
2022-10-14T08:01:48.175Z,13.87
2022-10-14T08:06:48.109Z,13.56
2022-10-14T08:11:48.099Z,13.75
2022-10-14T08:16:48.099Z,14.18
2022-10-14T08:21:48.093Z,14.56
2022-10-14T08:26:48.096Z,14.18
2022-10-14T08:31:48.095Z,14.5
2022-10-14T08:36:48.077Z,14.81
2022-10-14T08:41:48.097Z,14.75
2022-10-14T08:46:49.511Z,15.31
2022-10-14T08:51:48.065Z,14.81
2022-10-14T08:56:48.047Z,14.68
2022-10-14T09:01:48.076Z,14.43
2022-10-14T09:06:48.043Z,14.62
2022-10-14T09:11:48.046Z,14.5
2022-10-14T09:16:50.417Z,14.87
2022-10-14T09:21:52.510Z,14.81
2022-10-14T09:26:48.046Z,14.87
2022-10-14T09:31:48.004Z,15.06
2022-10-14T09:36:48.090Z,15.06
2022-10-14T09:41:47.996Z,15.06
2022-10-14T09:46:47.995Z,15.12
2022-10-14T09:51:48.007Z,15.12
2022-10-14T09:56:47.981Z,15.06
2022-10-14T10:01:47.973Z,15.12
2022-10-14T10:06:47.971Z,15.37
2022-10-14T10:11:47.975Z,15.43
2022-10-14T10:16:48.018Z,15.06
2022-10-14T10:21:47.957Z,15.37
2022-10-14T10:26:47.969Z,15.87
2022-10-14T10:31:47.952Z,15.87
2022-10-14T10:36:47.945Z,16.06
2022-10-14T10:41:47.935Z,16.25
2022-10-14T10:46:47.927Z,16
2022-10-14T10:51:47.937Z,16.31
2022-10-14T10:56:47.910Z,16.18
2022-10-14T11:01:47.930Z,16.25
2022-10-14T11:06:47.909Z,16.5
2022-10-14T11:11:47.902Z,16.43
2022-10-14T11:16:47.880Z,16.62
2022-10-14T11:21:47.900Z,16.62
2022-10-14T11:26:47.864Z,16.68
2022-10-14T11:31:47.868Z,16.81
2022-10-14T11:36:47.889Z,17.18
2022-10-14T11:41:47.856Z,17.18
2022-10-14T11:46:47.851Z,16.62
2022-10-14T11:51:47.856Z,16.87
2022-10-14T11:56:47.835Z,17.37
2022-10-14T12:01:47.849Z,17.12
2022-10-14T12:06:47.826Z,16.81
2022-10-14T12:11:47.840Z,17.06
2022-10-14T12:16:47.814Z,16.87
2022-10-14T12:21:49.669Z,17.37
2022-10-14T12:26:47.791Z,17.56
2022-10-14T12:31:47.802Z,17.5
2022-10-14T12:36:47.776Z,17.68
2022-10-14T12:41:47.789Z,17.37
2022-10-14T12:46:47.774Z,17.56
2022-10-14T12:51:47.771Z,17.18
2022-10-14T12:56:47.761Z,16.87
2022-10-14T13:01:47.783Z,16.93
2022-10-14T13:06:47.734Z,17.06
2022-10-14T13:11:47.750Z,17.37
2022-10-14T13:16:47.735Z,17.31
2022-10-14T13:21:47.748Z,17.31
2022-10-14T13:26:47.718Z,17.43
2022-10-14T13:31:47.716Z,17.06
2022-10-14T13:36:47.723Z,17.12
2022-10-14T13:41:47.700Z,17.18
2022-10-14T13:46:47.704Z,17.12
2022-10-14T13:51:47.710Z,17.06
2022-10-14T13:56:47.687Z,17.18
2022-10-14T14:01:47.746Z,17.12
2022-10-14T14:07:00.327Z,16.87
2022-10-14T14:11:47.670Z,16.81
2022-10-14T14:21:47.658Z,16.56
2022-10-14T14:26:47.642Z,16.5
2022-10-14T14:32:05.911Z,16.43
2022-10-14T14:36:51.056Z,16.25
2022-10-14T14:41:47.629Z,15.87
2022-10-14T14:46:47.618Z,15.25
2022-10-14T14:51:47.629Z,15.68
2022-10-14T14:56:47.614Z,15.43
2022-10-14T15:01:47.665Z,15.43
2022-10-14T15:06:50.861Z,15.25
2022-10-14T15:11:47.619Z,15.18
2022-10-14T15:16:47.669Z,15.18
2022-10-14T15:21:47.585Z,15.06
2022-10-14T15:26:47.571Z,14.43
2022-10-14T15:31:47.573Z,13.56
2022-10-14T15:41:47.547Z,13.43
2022-10-14T15:56:47.560Z,13.56
2022-10-14T16:01:47.563Z,13.43
2022-10-14T16:06:47.518Z,13.62
2022-10-14T16:16:47.522Z,13.5
2022-10-14T16:26:47.497Z,13.06
2022-10-14T16:46:47.468Z,13.31
2022-10-14T16:56:47.456Z,13.31
2022-10-14T17:41:47.424Z,12.87
2022-10-14T17:46:47.403Z,12.62
2022-10-14T17:56:47.400Z,12.56
2022-10-14T18:06:47.378Z,12.93
2022-10-14T18:16:47.376Z,12.81
2022-10-14T18:21:47.374Z,12.75
2022-10-14T18:26:47.353Z,12.75
2022-10-14T18:31:47.366Z,13.12
2022-10-14T18:36:47.346Z,13.06
2022-10-14T18:41:47.346Z,12.68
2022-10-14T18:46:47.366Z,12.93
2022-10-14T18:51:47.360Z,12.81
2022-10-14T18:56:47.330Z,12.81
2022-10-14T19:01:47.398Z,13
2022-10-14T19:06:47.305Z,12.81
2022-10-14T19:11:47.304Z,12.87
2022-10-14T19:16:47.308Z,12.62
2022-10-14T19:21:47.309Z,12.93
2022-10-14T19:26:47.294Z,13
2022-10-14T19:31:47.288Z,12.56
2022-10-14T19:36:47.276Z,12.62
2022-10-14T19:41:47.280Z,12.75
2022-10-14T19:46:47.280Z,12.68
2022-10-14T19:51:47.265Z,12.56
2022-10-14T19:56:47.263Z,12.5
2022-10-14T20:01:47.298Z,12.5
2022-10-14T20:06:47.248Z,12.37
2022-10-14T20:11:47.247Z,12.43
2022-10-14T20:16:49.090Z,12.5
2022-10-14T20:21:47.236Z,12.43
2022-10-14T20:26:47.235Z,12.56
2022-10-14T20:31:47.221Z,12.56
2022-10-14T20:36:47.209Z,12.56
2022-10-14T20:41:47.208Z,12.31
2022-10-14T20:46:47.208Z,12.31
2022-10-14T20:51:47.192Z,12.25
2022-10-14T20:56:47.204Z,12.25
2022-10-14T21:01:47.255Z,12.43
2022-10-14T21:06:47.194Z,12.37
2022-10-14T21:11:47.227Z,12.37
2022-10-14T21:16:47.178Z,12.37
2022-10-14T21:21:47.159Z,12.43
2022-10-14T21:26:47.155Z,12.31
2022-10-14T21:31:47.140Z,12.37
2022-10-14T21:36:47.142Z,12.31
2022-10-14T21:41:47.154Z,12.31
2022-10-14T21:46:47.128Z,12.56
2022-10-14T21:51:47.138Z,12.37
2022-10-14T21:56:47.149Z,12.56
2022-10-14T22:12:02.231Z,12.31
2022-10-14T22:16:47.101Z,12.37
2022-10-14T22:21:47.111Z,12.43
2022-10-14T22:26:47.098Z,12.37
2022-10-14T22:31:47.086Z,12.43
2022-10-14T22:36:47.081Z,12.25
2022-10-14T22:41:47.086Z,12.25
2022-10-14T22:46:47.070Z,12.18
2022-10-14T22:51:47.088Z,12.25
2022-10-14T22:56:47.063Z,12.31
2022-10-14T23:01:47.067Z,12.12
2022-10-14T23:06:47.052Z,12.62
2022-10-14T23:11:47.050Z,12.06
2022-10-14T23:16:47.032Z,12
2022-10-14T23:21:47.036Z,12.12
2022-10-14T23:26:47.015Z,12.18
2022-10-14T23:31:47.037Z,12.18
2022-10-14T23:36:47.078Z,12.31
2022-10-14T23:41:47.001Z,12.25
2022-10-14T23:46:47.008Z,12.31
2022-10-14T23:51:47.004Z,12.18
2022-10-14T23:56:46.983Z,12.12
